Roncesvalles Navarra

latitud = 43° 00' 31''N | longitud = 001° 19' 32''W
940 metros sobre el nivel del mar | datos mensuales

Fecha, hora, temperatura, viento dirección y velocidad, humedad y presión.

  • 16-08-2018 02:00:00 | 12.90°C | Calma |0.00 km/h | 100.00% | 0.00 hPa
  • 16-08-2018 01:00:00 | 13.30°C | Norte |2.00 km/h | 100.00% | 0.00 hPa
  • 16-08-2018 00:00:00 | 14.00°C | Noroeste |2.00 km/h | 100.00% | 0.00 hPa
  • 15-08-2018 23:00:00 | 15.60°C | Noroeste |4.00 km/h | 95.00% | 0.00 hPa
  • 15-08-2018 22:00:00 | 17.30°C | Norte |10.00 km/h | 88.00% | 0.00 hPa
  • 15-08-2018 21:00:00 | 17.70°C | Norte |13.00 km/h | 87.00% | 0.00 hPa
  • 15-08-2018 20:00:00 | 18.50°C | Norte |17.00 km/h | 83.00% | 0.00 hPa
  • 15-08-2018 19:00:00 | 19.30°C | Norte |15.00 km/h | 79.00% | 0.00 hPa
  • 15-08-2018 18:00:00 | 19.60°C | Norte |15.00 km/h | 79.00% | 0.00 hPa
  • 15-08-2018 17:00:00 | 19.30°C | Norte |18.00 km/h | 81.00% | 0.00 hPa
  • 15-08-2018 16:00:00 | 19.10°C | Norte |17.00 km/h | 83.00% | 0.00 hPa
  • 15-08-2018 15:00:00 | 18.30°C | Norte |17.00 km/h | 85.00% | 0.00 hPa
  • 15-08-2018 14:00:00 | 17.80°C | Norte |18.00 km/h | 88.00% | 0.00 hPa
  • 15-08-2018 13:00:00 | 17.70°C | Norte |13.00 km/h | 85.00% | 0.00 hPa
  • 15-08-2018 12:00:00 | 16.80°C | Norte |15.00 km/h | 86.00% | 0.00 hPa
  • 15-08-2018 11:00:00 | 16.10°C | Norte |13.00 km/h | 87.00% | 0.00 hPa
  • 15-08-2018 10:00:00 | 15.20°C | Norte |10.00 km/h | 87.00% | 0.00 hPa
  • 15-08-2018 09:00:00 | 12.80°C | Norte |10.00 km/h | 98.00% | 0.00 hPa
  • 15-08-2018 08:00:00 | 12.30°C | Norte |15.00 km/h | 100.00% | 0.00 hPa
  • 15-08-2018 07:00:00 | 12.20°C | Nordeste |10.00 km/h | 100.00% | 0.00 hPa
  • 15-08-2018 06:00:00 | 12.20°C | Noroeste |5.00 km/h | 100.00% | 0.00 hPa
  • 15-08-2018 05:00:00 | 12.30°C | Nordeste |15.00 km/h | 100.00% | 0.00 hPa
  • 15-08-2018 04:00:00 | 12.40°C | Nordeste |10.00 km/h | 100.00% | 0.00 hPa
  • 15-08-2018 03:00:00 | 12.70°C | Este |12.00 km/h | 100.00% | 0.00 hPa